Latest Weather Observations for Tamworth Airport

IDN60801

Issued at 4:52 pm EDT Monday 18 February 2019 (issued every 10 minutes, with the page automatically refreshed every 10 minutes)

About weather observations | Map of weather stations | Latest weather observations for NSW | Other Formats
Station Details ID: 055325 Name: TAMWORTH AIRPORT AWS Lat: -31.07 Lon: 150.84 Height: 394.9 m
Data from the previous 72 hours. | See also: Recent months at Tamworth Airport
Date/Time
EDT
Temp
°C
App
Temp
°C
Dew
Point
°C
Rel
Hum
%
Delta-T
°C
Wind Press
QNH
hPa
Press
MSL
hPa
Rain since
9am
mm
Dir  Spd
km/h
Gust
km/h
Spd
kts
Gust
kts
18/04:30pm 35.9 33.7 6.2 16 16.5 NE 7 15 4 8 1007.7 1005.4 0.0
18/04:00pm 36.5 34.6 7.5 17 16.6 NNE 7 15 4 8 1008.1 1005.8 0.0
18/03:30pm 35.4 33.7 7.5 18 15.8 SE 6 11 3 6 1008.6 1006.3 0.0
18/03:00pm 35.3 32.2 7.4 18 15.8 SW 13 24 7 13 1009.2 1007.0 0.0
18/02:30pm 35.6 33.5 6.8 17 16.2 NW 7 17 4 9 1009.8 1007.6 0.0
18/02:00pm 34.3 31.0 6.6 18 15.4 WNW 13 26 7 14 1010.5 1008.2 0.0
18/01:30pm 33.7 30.9 5.3 17 15.4 NNW 9 17 5 9 1011.0 1008.7 0.0
18/01:00pm 33.4 30.1 6.6 19 14.8 W 13 20 7 11 1011.5 1009.3 0.0
18/12:30pm 33.1 31.2 9.2 23 13.8 NW 9 13 5 7 1011.9 1009.7 0.0
18/12:00pm 31.5 29.9 10.2 27 12.4 WSW 9 15 5 8 1012.4 1010.2 0.0
18/11:30am 30.3 29.4 11.3 31 11.2 WNW 7 13 4 7 1013.1 1010.8 0.0
18/11:00am 29.2 28.0 11.7 34 10.3 WSW 9 13 5 7 1013.4 1011.1 0.0
18/10:30am 28.0 26.9 12.0 37 9.4 NNW 9 19 5 10 1013.7 1011.5 0.0
18/10:00am 27.1 27.6 12.7 41 8.5 S 2 9 1 5 1013.9 1011.7 0.0
18/09:30am 26.0 25.9 13.2 45 7.6 WSW 6 9 3 5 1014.0 1011.8 0.0
18/09:00am 25.2 25.9 13.4 48 7.0 ESE 2 7 1 4 1014.0 1011.8 0.0
18/08:30am 24.5 24.0 13.7 51 6.4 ESE 9 11 5 6 1013.9 1011.7 0.0
18/08:00am 23.0 21.8 14.0 57 5.4 SE 13 15 7 8 1013.6 1011.4 0.0
18/07:30am 19.7 20.2 14.1 70 3.3 SSW 4 6 2 3 1013.4 1011.1 0.0
18/07:00am 17.9 17.6 13.2 74 2.7 S 7 9 4 5 1012.9 1010.6 0.0
18/06:30am 18.3 19.2 13.0 71 3.0 CALM 0 0 0 0 1012.4 1010.2 0.0
18/06:00am 18.9 20.0 13.5 71 3.1 CALM 0 0 0 0 1012.2 1010.0 0.0
18/05:30am 18.1 18.8 12.1 68 3.4 CALM 0 0 0 0 1011.9 1009.7 0.0
18/05:00am 19.9 19.0 13.8 68 3.6 SE 11 11 6 6 1011.8 1009.6 0.0
18/04:30am 19.5 19.4 13.2 67 3.6 SE 6 9 3 5 1011.7 1009.5 0.0
18/04:00am 20.6 20.0 13.6 64 4.1 SSE 9 11 5 6 1011.7 1009.5 0.0
18/03:30am 21.2 20.2 13.4 61 4.6 SE 11 15 6 8 1011.6 1009.4 0.0
18/03:00am 22.2 20.8 13.3 57 5.2 ESE 13 15 7 8 1011.8 1009.6 0.0
18/02:30am 22.2 21.2 13.5 57 5.1 ESE 11 15 6 8 1011.9 1009.7 0.0
18/02:00am 22.3 21.1 12.8 55 5.5 ESE 11 13 6 7 1012.1 1009.9 0.0
18/01:30am 24.1 23.1 13.3 51 6.4 E 11 13 6 7 1012.3 1010.1 0.0
18/01:00am 24.7 23.9 13.0 48 6.9 E 9 15 5 8 1012.5 1010.3 0.0
18/12:30am 25.8 23.5 13.0 45 7.6 ESE 17 26 9 14 1012.6 1010.4 0.0
18/12:00am 26.1 23.6 12.2 42 8.1 ESE 17 22 9 12 1012.6 1010.4 0.0
 
Date/Time
EDT
Temp
°C
App
Temp
°C
Dew
Point
°C
Rel
Hum
%
Delta-T
°C
Wind Press
QNH
hPa
Press
MSL
hPa
Rain since
9am
mm
Dir  Spd
km/h
Gust
km/h
Spd
kts
Gust
kts
17/11:30pm 26.5 23.5 12.5 41 8.3 ESE 20 26 11 14 1012.4 1010.2 0.0
17/11:00pm 27.2 23.3 10.8 36 9.4 ESE 22 26 12 14 1012.3 1010.1 0.0
17/10:30pm 26.4 21.9 5.9 27 10.8 SE 19 24 10 13 1012.2 1010.0 0.0
17/10:00pm 25.5 24.0 5.1 27 10.6 SSE 2 9 1 5 1011.9 1009.7 0.0
17/09:30pm 26.6 25.5 5.0 25 11.2 CALM 0 0 0 0 1011.7 1009.5 0.0
17/09:00pm 27.3 26.2 5.0 24 11.6 CALM 0 0 0 0 1011.5 1009.3 0.0
17/08:30pm 28.2 27.1 5.1 23 12.1 CALM 0 0 0 0 1011.2 1009.0 0.0
17/08:00pm 29.0 27.8 4.5 21 12.8 CALM 0 0 0 0 1011.0 1008.7 0.0
17/07:30pm 31.0 29.1 3.1 17 14.4 WSW 2 7 1 4 1010.8 1008.5 0.0
17/07:00pm 32.9 29.5 1.9 14 15.9 SW 9 11 5 6 1010.7 1008.4 0.0
17/06:30pm 33.5 31.1 4.2 16 15.6 WSW 6 11 3 6 1010.6 1008.3 0.0
17/06:00pm 33.9 31.4 4.6 16 15.8 WSW 7 13 4 7 1010.7 1008.4 0.0
17/05:30pm 33.8 31.1 5.4 17 15.5 W 9 17 5 9 1010.8 1008.5 0.0
17/05:00pm 34.1 30.3 3.8 15 16.1 WSW 13 22 7 12 1011.0 1008.7 0.0
17/04:30pm 33.9 31.0 4.6 16 15.8 NW 9 15 5 8 1011.2 1009.0 0.0
17/04:00pm 33.4 29.3 4.2 16 15.6 SSW 15 22 8 12 1011.6 1009.4 0.0
17/03:30pm 32.8 29.3 3.7 16 15.3 SW 11 19 6 10 1012.0 1009.8 0.0
17/03:00pm 32.9 29.8 5.5 18 14.9 SSW 11 24 6 13 1012.4 1010.2 0.0
17/02:30pm 32.9 28.1 4.6 17 15.1 S 19 28 10 15 1013.1 1010.8 0.0
17/02:00pm 31.2 28.9 7.6 23 13.1 E 9 15 5 8 1013.6 1011.4 0.0
17/01:30pm 31.5 28.8 9.1 25 12.8 WNW 13 28 7 15 1014.0 1011.8 0.0
17/01:00pm 30.4 28.4 8.7 26 12.2 WNW 9 17 5 9 1014.5 1012.3 0.0
17/12:30pm 29.7 28.5 10.3 30 11.2 N 7 17 4 9 1015.0 1012.8 0.0
17/12:00pm 28.2 26.5 9.9 32 10.4 WNW 9 15 5 8 1015.7 1013.4 0.0
17/11:30am 27.9 25.9 10.1 33 10.2 WSW 11 17 6 9 1016.2 1014.0 0.0
17/11:00am 27.1 26.0 10.8 36 9.4 WNW 7 13 4 7 1016.7 1014.5 0.0
17/10:30am 25.6 24.4 10.2 38 8.7 NNE 7 13 4 7 1016.8 1014.6 0.0
17/10:00am 25.1 23.7 10.9 41 8.1 NW 9 15 5 8 1016.8 1014.6 0.0
17/09:30am 24.0 23.1 10.7 43 7.5 E 6 11 3 6 1016.8 1014.6 0.0
17/09:00am 22.3 21.2 10.5 47 6.6 NNE 7 9 4 5 1016.8 1014.6 0.0
17/08:30am 22.0 21.1 10.5 48 6.4 ESE 6 9 3 5 1016.7 1014.5 0.0
17/08:00am 20.9 20.2 11.5 55 5.3 SSE 6 7 3 4 1016.7 1014.5 0.0
17/07:30am 19.1 17.6 11.9 63 4.1 SSE 11 13 6 7 1016.3 1014.1 0.0
17/07:00am 17.2 15.6 11.7 70 3.1 SSE 11 13 6 7 1016.0 1013.8 0.0
17/06:30am 16.4 14.3 11.3 72 2.8 SSE 13 13 7 7 1015.6 1013.3 0.0
17/06:00am 16.5 14.9 11.4 72 2.8 SSE 11 13 6 7 1015.2 1013.0 0.0
17/05:30am 17.1 15.9 11.6 70 3.1 SE 9 11 5 6 1015.0 1012.8 0.0
17/05:00am 17.6 16.4 11.6 68 3.3 SSE 9 11 5 6 1015.0 1012.8 0.0
17/04:30am 17.9 16.4 11.9 68 3.4 SE 11 15 6 8 1015.0 1012.8 0.0
17/04:00am 18.4 16.3 11.2 63 4.0 SE 13 15 7 8 1014.9 1012.7 0.0
17/03:30am 20.1 17.8 11.8 59 4.7 ESE 15 19 8 10 1015.1 1012.9 0.0
17/03:00am 19.8 17.9 11.8 60 4.5 ESE 13 15 7 8 1015.3 1013.1 0.0
17/02:30am 19.6 18.2 10.9 57 4.8 ESE 9 11 5 6 1015.8 1013.6 0.0
17/02:00am 20.9 18.8 11.3 54 5.4 E 13 19 7 10 1016.0 1013.8 0.0
17/01:30am 21.5 19.0 11.2 52 5.8 ESE 15 20 8 11 1016.2 1014.0 0.0
17/01:00am 22.1 19.3 11.2 50 6.2 E 17 24 9 13 1016.4 1014.2 0.0
17/12:30am 22.3 19.3 10.8 48 6.5 E 17 24 9 13 1016.6 1014.4 0.0
17/12:00am 23.0 19.0 10.4 45 7.0 E 22 30 12 16 1016.5 1014.3 0.0
 
Date/Time
EDT
Temp
°C
App
Temp
°C
Dew
Point
°C
Rel
Hum
%
Delta-T
°C
Wind Press
QNH
hPa
Press
MSL
hPa
Rain since
9am
mm
Dir  Spd
km/h
Gust
km/h
Spd
kts
Gust
kts
16/11:30pm 23.6 18.3 9.9 42 7.6 ESE 28 35 15 19 1016.5 1014.3 0.0
16/11:00pm 24.3 18.5 9.5 39 8.2 ESE 30 39 16 21 1016.5 1014.3 0.0
16/10:30pm 25.1 19.9 9.0 36 8.9 E 26 33 14 18 1016.5 1014.3 0.0
16/10:00pm 25.8 20.6 8.8 34 9.4 ESE 26 35 14 19 1016.2 1014.0 0.0
16/09:30pm 26.5 21.3 8.9 33 9.8 ESE 26 33 14 18 1016.0 1013.8 0.0
16/09:00pm 27.5 21.2 8.9 31 10.4 E 32 43 17 23 1015.1 1012.9 0.0
16/08:30pm 27.6 22.3 9.9 33 10.0 SSE 28 39 15 21 1014.7 1012.5 0.0
16/08:00pm 28.1 24.4 7.9 28 11.1 S 17 24 9 13 1014.4 1012.2 0.0
16/07:30pm 30.0 26.6 3.9 19 13.6 SSW 11 17 6 9 1014.1 1011.9 0.0
16/07:00pm 32.1 28.3 4.0 17 14.8 WSW 13 17 7 9 1013.8 1011.6 0.0
16/06:30pm 32.9 30.8 3.8 16 15.4 SW 4 11 2 6 1013.9 1011.7 0.0
16/06:00pm 32.4 28.5 3.4 16 15.2 SW 13 26 7 14 1014.0 1011.8 0.0
16/05:30pm 33.1 29.8 4.8 17 15.2 WNW 11 24 6 13 1014.3 1012.1 0.0
16/05:00pm 33.0 29.0 4.7 17 15.2 WNW 15 20 8 11 1014.5 1012.3 0.0
16/04:30pm 31.8 28.9 4.6 18 14.5 S 9 19 5 10 1014.8 1012.6 0.0
16/04:00pm 31.8 27.7 4.6 18 14.4 S 15 24 8 13 1015.3 1013.1 0.0
16/03:30pm 32.4 29.5 6.6 20 14.2 WSW 11 19 6 10 1015.7 1013.4 0.0
16/03:00pm 31.9 29.5 6.9 21 13.8 SW 9 17 5 9 1016.2 1014.0 0.0
16/02:30pm 32.2 28.7 7.1 21 13.9 NNW 15 39 8 21 1016.8 1014.6 0.0
16/02:00pm 29.8 27.4 7.1 24 12.4 SW 9 17 5 9 1017.5 1015.3 0.0
16/01:30pm 30.3 27.6 7.5 24 12.6 WSW 11 17 6 9 1017.8 1015.6 0.0
16/01:00pm 29.1 26.1 7.7 26 11.8 ESE 13 33 7 18 1018.5 1016.3 0.0
16/12:30pm 28.7 25.4 7.9 27 11.5 S 15 20 8 11 1019.1 1016.9 0.0
16/12:00pm 27.5 25.8 8.4 30 10.5 N 7 17 4 9 1019.6 1017.4 0.0
16/11:30am 27.3 25.7 8.7 31 10.3 ENE 7 13 4 7 1020.0 1017.8 0.0
16/11:00am 26.5 23.5 9.4 34 9.6 ESE 15 24 8 13 1020.4 1018.3 0.0
16/10:30am 25.5 22.5 9.3 36 9.0 E 15 24 8 13 1020.6 1018.5 0.0
16/10:00am 24.5 21.7 10.0 40 8.1 E 15 26 8 14 1020.9 1018.7 0.0
16/09:30am 23.1 19.5 9.8 43 7.4 E 19 26 10 14 1020.8 1018.6 0.0
16/09:00am 22.1 18.3 9.9 46 6.7 ESE 20 30 11 16 1020.6 1018.5 0.0
16/08:30am 21.3 17.7 10.5 50 6.0 ESE 20 24 11 13 1020.9 1018.7 0.0
16/08:00am 19.8 16.2 10.0 53 5.3 SE 19 24 10 13 1020.8 1018.6 0.0
16/07:30am 18.2 15.0 10.1 59 4.4 SE 17 22 9 12 1020.6 1018.5 0.0
16/07:00am 16.3 13.4 9.7 65 3.5 SSE 15 17 8 9 1020.5 1018.4 0.0
16/06:30am 15.9 12.5 9.3 65 3.5 SE 17 20 9 11 1020.2 1018.1 0.0
16/06:00am 16.6 13.0 9.8 64 3.6 SE 19 24 10 13 1020.0 1017.8 0.0
16/05:30am 16.5 12.9 9.7 64 3.6 SE 19 24 10 13 1020.0 1017.8 0.0
16/05:00am 16.5 12.9 9.7 64 3.6 SSE 19 28 10 15 1019.8 1017.6 0.0
16/04:30am 16.7 13.4 9.6 63 3.8 SE 17 22 9 12 1019.7 1017.5 0.0
16/04:00am 16.9 13.5 9.3 61 4.0 SE 17 22 9 12 1019.9 1017.7 0.0
16/03:30am 17.7 13.8 9.3 58 4.5 SE 20 33 11 18 1020.2 1018.1 0.0
16/03:00am 18.4 13.2 8.9 54 5.0 SE 26 33 14 18 1020.4 1018.3 0.0
16/02:30am 19.0 13.4 8.9 52 5.4 ESE 28 35 15 19 1020.4 1018.3 0.0
16/02:00am 19.3 13.7 8.6 50 5.7 ESE 28 35 15 19 1021.0 1018.8 0.0
16/01:30am 19.8 14.6 8.8 49 5.9 ESE 26 33 14 18 1021.3 1019.1 0.0
16/01:00am 20.0 14.3 8.4 47 6.1 ESE 28 37 15 20 1021.5 1019.3 0.0
16/12:30am 20.1 14.4 8.4 47 6.2 ESE 28 37 15 20 1021.7 1019.5 0.0
16/12:03am 20.5 15.0 9.1 48 6.2 E 28 46 15 25 1021.6 1019.4 0.0
16/12:00am 20.5 14.9 8.8 47 6.3 E 28 41 15 22 1021.7 1019.5 0.0
 
Date/Time
EDT
Temp
°C
App
Temp
°C
Dew
Point
°C
Rel
Hum
%
Delta-T
°C
Wind Press
QNH
hPa
Press
MSL
hPa
Rain since
9am
mm
Dir  Spd
km/h
Gust
km/h
Spd
kts
Gust
kts
15/11:30pm 21.0 15.5 9.3 47 6.4 E 28 39 15 21 1021.5 1019.3 0.0
15/11:00pm 21.7 15.5 9.3 45 6.7 ESE 32 44 17 24 1021.3 1019.1 0.0
15/10:30pm 22.4 16.2 9.2 43 7.2 ESE 32 43 17 23 1021.1 1018.9 0.0
15/10:05pm 23.1 16.3 9.1 41 7.7 ESE 35 54 19 29 1020.8 1018.6 0.0
15/10:00pm 23.3 17.1 9.3 41 7.7 ESE 32 44 17 24 1020.6 1018.5 0.0
15/09:30pm 23.9 18.0 9.1 39 8.1 ESE 30 37 16 20 1020.3 1018.2 0.0
15/09:00pm 24.8 18.8 8.7 36 8.8 ESE 30 39 16 21 1019.8 1017.6 0.0
15/08:30pm 25.6 19.2 8.6 34 9.3 ESE 32 41 17 22 1019.3 1017.1 0.0
15/08:00pm 26.5 20.0 8.0 31 10.1 ESE 32 39 17 21 1018.8 1016.6 0.0
15/07:30pm 27.7 21.0 8.1 29 10.8 SE 33 43 18 23 1018.3 1016.1 0.0
15/07:00pm 28.9 22.1 7.5 26 11.7 ESE 33 43 18 23 1017.8 1015.6 0.0
15/06:30pm 30.1 23.2 7.3 24 12.6 SE 33 44 18 24 1017.4 1015.2 0.0
15/06:00pm 30.8 23.4 6.6 22 13.2 SE 35 46 19 25 1017.2 1015.0 0.0
15/05:30pm 31.9 25.9 6.9 21 13.8 SE 28 43 15 23 1017.1 1014.9 0.0
15/05:00pm 32.5 27.4 5.9 19 14.5 ESE 22 39 12 21 1016.9 1014.7 0.0

Other formats

Comma delimited format used in spreadsheet applications
http://www.bom.gov.au/fwo/IDN60801/IDN60801.95762.axf

JavaScript Object Notation format (JSON) in row-major order
http://www.bom.gov.au/fwo/IDN60801/IDN60801.95762.json

Data quality

Most of these data are generated automatically and are frequently updated. Quality checks on data are not normally performed. It is possible for incorrect values to appear. Refer to information at About Latest Weather Observations and please check the disclaimer before using these data.